sensor_id;sensor_type;location;lat;lon;timestamp;P1;durP1;ratioP1;P2;durP2;ratioP2
39032;SDS011;24794;51.982;5.878;2023-03-14T00:00:48;8.63;;;2.10;;
39032;SDS011;24794;51.982;5.878;2023-03-14T00:01:48;11.75;;;2.42;;
39032;SDS011;24794;51.982;5.878;2023-03-14T00:02:52;9.10;;;1.98;;
39032;SDS011;24794;51.982;5.878;2023-03-14T00:03:53;11.35;;;2.25;;
39032;SDS011;24794;51.982;5.878;2023-03-14T00:04:54;9.18;;;2.50;;
39032;SDS011;24794;51.982;5.878;2023-03-14T00:05:56;8.43;;;1.98;;
39032;SDS011;24794;51.982;5.878;2023-03-14T00:06:56;7.18;;;2.28;;
39032;SDS011;24794;51.982;5.878;2023-03-14T00:07:57;6.47;;;2.25;;
39032;SDS011;24794;51.982;5.878;2023-03-14T00:08:57;6.82;;;2.08;;
39032;SDS011;24794;51.982;5.878;2023-03-14T00:09:58;10.15;;;2.45;;
39032;SDS011;24794;51.982;5.878;2023-03-14T00:11:03;10.73;;;2.55;;
39032;SDS011;24794;51.982;5.878;2023-03-14T00:12:24;8.75;;;2.22;;
39032;SDS011;24794;51.982;5.878;2023-03-14T00:13:24;6.85;;;2.10;;
39032;SDS011;24794;51.982;5.878;2023-03-14T00:14:25;12.88;;;2.63;;
39032;SDS011;24794;51.982;5.878;2023-03-14T00:15:25;6.68;;;2.28;;
39032;SDS011;24794;51.982;5.878;2023-03-14T00:16:26;7.35;;;1.95;;
39032;SDS011;24794;51.982;5.878;2023-03-14T00:17:26;11.82;;;2.22;;
39032;SDS011;24794;51.982;5.878;2023-03-14T00:18:27;7.88;;;2.30;;
39032;SDS011;24794;51.982;5.878;2023-03-14T00:19:28;9.10;;;2.38;;
39032;SDS011;24794;51.982;5.878;2023-03-14T00:20:28;14.27;;;2.45;;
39032;SDS011;24794;51.982;5.878;2023-03-14T00:21:29;11.82;;;2.45;;
39032;SDS011;24794;51.982;5.878;2023-03-14T00:22:30;11.48;;;2.60;;
39032;SDS011;24794;51.982;5.878;2023-03-14T00:23:32;11.70;;;2.60;;
39032;SDS011;24794;51.982;5.878;2023-03-14T00:24:34;8.63;;;2.55;;
39032;SDS011;24794;51.982;5.878;2023-03-14T00:25:34;11.38;;;2.55;;
39032;SDS011;24794;51.982;5.878;2023-03-14T00:26:35;10.90;;;2.45;;
39032;SDS011;24794;51.982;5.878;2023-03-14T00:27:35;14.23;;;2.72;;
39032;SDS011;24794;51.982;5.878;2023-03-14T00:28:36;15.30;;;2.55;;
39032;SDS011;24794;51.982;5.878;2023-03-14T00:29:37;8.35;;;2.22;;
39032;SDS011;24794;51.982;5.878;2023-03-14T00:30:38;7.38;;;2.20;;
39032;SDS011;24794;51.982;5.878;2023-03-14T00:31:38;11.10;;;2.15;;
39032;SDS011;24794;51.982;5.878;2023-03-14T00:32:39;9.52;;;1.85;;
39032;SDS011;24794;51.982;5.878;2023-03-14T00:33:40;8.00;;;2.08;;
39032;SDS011;24794;51.982;5.878;2023-03-14T00:34:41;6.35;;;2.00;;
39032;SDS011;24794;51.982;5.878;2023-03-14T00:35:42;8.10;;;1.98;;
39032;SDS011;24794;51.982;5.878;2023-03-14T00:36:44;11.07;;;2.00;;
39032;SDS011;24794;51.982;5.878;2023-03-14T00:37:44;7.68;;;1.85;;
39032;SDS011;24794;51.982;5.878;2023-03-14T00:38:47;7.03;;;1.70;;
39032;SDS011;24794;51.982;5.878;2023-03-14T00:39:51;7.20;;;1.60;;
39032;SDS011;24794;51.982;5.878;2023-03-14T00:40:52;7.90;;;1.80;;
39032;SDS011;24794;51.982;5.878;2023-03-14T00:41:52;8.65;;;2.22;;
39032;SDS011;24794;51.982;5.878;2023-03-14T00:42:53;8.02;;;1.92;;
39032;SDS011;24794;51.982;5.878;2023-03-14T00:43:53;8.20;;;1.60;;
39032;SDS011;24794;51.982;5.878;2023-03-14T00:44:54;11.48;;;1.50;;
39032;SDS011;24794;51.982;5.878;2023-03-14T00:45:54;8.68;;;1.67;;
39032;SDS011;24794;51.982;5.878;2023-03-14T00:46:55;7.57;;;1.80;;
39032;SDS011;24794;51.982;5.878;2023-03-14T00:47:56;6.05;;;1.50;;
39032;SDS011;24794;51.982;5.878;2023-03-14T00:48:57;4.90;;;1.55;;
39032;SDS011;24794;51.982;5.878;2023-03-14T00:49:57;7.57;;;1.45;;
39032;SDS011;24794;51.982;5.878;2023-03-14T00:50:58;8.95;;;1.60;;
39032;SDS011;24794;51.982;5.878;2023-03-14T00:51:59;6.22;;;1.40;;
39032;SDS011;24794;51.982;5.878;2023-03-14T00:52:59;6.60;;;1.45;;
39032;SDS011;24794;51.982;5.878;2023-03-14T00:54:00;7.18;;;1.48;;
39032;SDS011;24794;51.982;5.878;2023-03-14T00:55:01;6.35;;;1.33;;
39032;SDS011;24794;51.982;5.878;2023-03-14T00:56:02;4.60;;;1.42;;
39032;SDS011;24794;51.982;5.878;2023-03-14T00:57:03;7.15;;;1.48;;
39032;SDS011;24794;51.982;5.878;2023-03-14T00:58:04;8.65;;;1.75;;
39032;SDS011;24794;51.982;5.878;2023-03-14T00:59:04;9.13;;;2.10;;
39032;SDS011;24794;51.982;5.878;2023-03-14T01:00:05;6.70;;;1.02;;
39032;SDS011;24794;51.982;5.878;2023-03-14T01:01:15;5.57;;;1.38;;
39032;SDS011;24794;51.982;5.878;2023-03-14T01:02:18;6.60;;;1.55;;
39032;SDS011;24794;51.982;5.878;2023-03-14T01:03:18;6.72;;;1.63;;
39032;SDS011;24794;51.982;5.878;2023-03-14T01:04:19;5.90;;;1.20;;
39032;SDS011;24794;51.982;5.878;2023-03-14T01:05:19;8.93;;;1.90;;
39032;SDS011;24794;51.982;5.878;2023-03-14T01:06:23;5.70;;;1.35;;
39032;SDS011;24794;51.982;5.878;2023-03-14T01:07:25;6.22;;;1.10;;
39032;SDS011;24794;51.982;5.878;2023-03-14T01:08:26;8.20;;;2.13;;
39032;SDS011;24794;51.982;5.878;2023-03-14T01:09:26;6.97;;;1.65;;
39032;SDS011;24794;51.982;5.878;2023-03-14T01:10:27;8.45;;;1.65;;
39032;SDS011;24794;51.982;5.878;2023-03-14T01:11:32;8.60;;;1.75;;
39032;SDS011;24794;51.982;5.878;2023-03-14T01:12:34;7.18;;;1.35;;
39032;SDS011;24794;51.982;5.878;2023-03-14T01:13:35;7.53;;;1.60;;
39032;SDS011;24794;51.982;5.878;2023-03-14T01:14:36;12.35;;;2.05;;
39032;SDS011;24794;51.982;5.878;2023-03-14T01:15:37;9.20;;;1.90;;
39032;SDS011;24794;51.982;5.878;2023-03-14T01:16:38;12.20;;;2.38;;
39032;SDS011;24794;51.982;5.878;2023-03-14T01:17:38;11.63;;;2.03;;
39032;SDS011;24794;51.982;5.878;2023-03-14T01:18:39;7.03;;;1.80;;
39032;SDS011;24794;51.982;5.878;2023-03-14T01:19:43;8.95;;;2.25;;
39032;SDS011;24794;51.982;5.878;2023-03-14T01:20:43;8.15;;;1.70;;
39032;SDS011;24794;51.982;5.878;2023-03-14T01:21:44;11.38;;;2.00;;
39032;SDS011;24794;51.982;5.878;2023-03-14T01:22:47;12.27;;;1.65;;
39032;SDS011;24794;51.982;5.878;2023-03-14T01:23:48;9.35;;;2.00;;
39032;SDS011;24794;51.982;5.878;2023-03-14T01:24:49;8.23;;;2.00;;
39032;SDS011;24794;51.982;5.878;2023-03-14T01:25:50;10.82;;;2.00;;
39032;SDS011;24794;51.982;5.878;2023-03-14T01:26:51;8.23;;;2.40;;
39032;SDS011;24794;51.982;5.878;2023-03-14T01:27:51;6.10;;;2.17;;
39032;SDS011;24794;51.982;5.878;2023-03-14T01:28:52;10.18;;;2.60;;
39032;SDS011;24794;51.982;5.878;2023-03-14T01:29:54;9.60;;;1.95;;
39032;SDS011;24794;51.982;5.878;2023-03-14T01:30:54;6.95;;;1.58;;
39032;SDS011;24794;51.982;5.878;2023-03-14T01:31:55;12.20;;;2.22;;
39032;SDS011;24794;51.982;5.878;2023-03-14T01:32:55;9.80;;;1.95;;
39032;SDS011;24794;51.982;5.878;2023-03-14T01:33:56;10.07;;;1.98;;
39032;SDS011;24794;51.982;5.878;2023-03-14T01:34:56;11.25;;;2.20;;
39032;SDS011;24794;51.982;5.878;2023-03-14T01:35:57;11.73;;;2.28;;
39032;SDS011;24794;51.982;5.878;2023-03-14T01:36:57;8.32;;;2.03;;
39032;SDS011;24794;51.982;5.878;2023-03-14T01:37:58;10.90;;;2.05;;
39032;SDS011;24794;51.982;5.878;2023-03-14T01:38:58;6.85;;;2.08;;
39032;SDS011;24794;51.982;5.878;2023-03-14T01:39:59;9.98;;;1.95;;
39032;SDS011;24794;51.982;5.878;2023-03-14T01:41:00;10.65;;;2.28;;
39032;SDS011;24794;51.982;5.878;2023-03-14T01:42:00;6.63;;;1.75;;
39032;SDS011;24794;51.982;5.878;2023-03-14T01:43:13;11.88;;;2.00;;
39032;SDS011;24794;51.982;5.878;2023-03-14T01:44:18;8.35;;;1.90;;
39032;SDS011;24794;51.982;5.878;2023-03-14T01:47:12;11.73;;;1.77;;
39032;SDS011;24794;51.982;5.878;2023-03-14T01:48:13;10.40;;;2.20;;
39032;SDS011;24794;51.982;5.878;2023-03-14T01:50:29;8.45;;;1.48;;
39032;SDS011;24794;51.982;5.878;2023-03-14T01:53:04;8.82;;;1.77;;
39032;SDS011;24794;51.982;5.878;2023-03-14T01:54:06;9.57;;;1.60;;
39032;SDS011;24794;51.982;5.878;2023-03-14T01:55:12;11.45;;;2.85;;
39032;SDS011;24794;51.982;5.878;2023-03-14T01:56:19;12.55;;;2.83;;
39032;SDS011;24794;51.982;5.878;2023-03-14T01:57:32;12.05;;;2.72;;
39032;SDS011;24794;51.982;5.878;2023-03-14T01:58:43;9.70;;;2.40;;
39032;SDS011;24794;51.982;5.878;2023-03-14T01:59:48;8.52;;;2.63;;
39032;SDS011;24794;51.982;5.878;2023-03-14T02:00:55;10.13;;;1.92;;
39032;SDS011;24794;51.982;5.878;2023-03-14T02:01:57;11.90;;;2.17;;
39032;SDS011;24794;51.982;5.878;2023-03-14T02:03:00;10.45;;;2.38;;
39032;SDS011;24794;51.982;5.878;2023-03-14T02:04:05;17.20;;;2.55;;
39032;SDS011;24794;51.982;5.878;2023-03-14T02:05:06;13.30;;;3.13;;
39032;SDS011;24794;51.982;5.878;2023-03-14T02:06:08;11.90;;;2.45;;
39032;SDS011;24794;51.982;5.878;2023-03-14T02:08:32;16.52;;;2.22;;
39032;SDS011;24794;51.982;5.878;2023-03-14T02:09:35;21.45;;;3.13;;
39032;SDS011;24794;51.982;5.878;2023-03-14T02:10:39;11.30;;;2.47;;
39032;SDS011;24794;51.982;5.878;2023-03-14T02:11:42;14.85;;;2.88;;
39032;SDS011;24794;51.982;5.878;2023-03-14T02:12:45;11.25;;;2.40;;
39032;SDS011;24794;51.982;5.878;2023-03-14T02:13:48;11.07;;;2.05;;
39032;SDS011;24794;51.982;5.878;2023-03-14T02:14:49;10.05;;;2.20;;
39032;SDS011;24794;51.982;5.878;2023-03-14T02:15:50;6.55;;;2.10;;
39032;SDS011;24794;51.982;5.878;2023-03-14T02:16:51;16.23;;;2.38;;
39032;SDS011;24794;51.982;5.878;2023-03-14T02:17:51;13.43;;;2.80;;
39032;SDS011;24794;51.982;5.878;2023-03-14T02:18:52;14.65;;;2.72;;
39032;SDS011;24794;51.982;5.878;2023-03-14T02:22:25;16.83;;;3.15;;
39032;SDS011;24794;51.982;5.878;2023-03-14T02:23:33;11.73;;;3.30;;
39032;SDS011;24794;51.982;5.878;2023-03-14T02:24:42;17.90;;;2.80;;
39032;SDS011;24794;51.982;5.878;2023-03-14T02:25:58;13.38;;;2.50;;
39032;SDS011;24794;51.982;5.878;2023-03-14T02:28:07;14.23;;;2.78;;
39032;SDS011;24794;51.982;5.878;2023-03-14T02:29:08;15.80;;;2.58;;
39032;SDS011;24794;51.982;5.878;2023-03-14T02:30:13;11.07;;;2.58;;
39032;SDS011;24794;51.982;5.878;2023-03-14T02:31:17;11.80;;;2.67;;
39032;SDS011;24794;51.982;5.878;2023-03-14T02:32:18;13.23;;;2.80;;
39032;SDS011;24794;51.982;5.878;2023-03-14T02:33:20;14.60;;;2.28;;
39032;SDS011;24794;51.982;5.878;2023-03-14T02:34:21;10.23;;;2.35;;
39032;SDS011;24794;51.982;5.878;2023-03-14T02:35:23;15.05;;;2.70;;
39032;SDS011;24794;51.982;5.878;2023-03-14T02:36:26;15.93;;;2.88;;
39032;SDS011;24794;51.982;5.878;2023-03-14T02:37:36;12.00;;;2.15;;
39032;SDS011;24794;51.982;5.878;2023-03-14T02:38:51;11.32;;;2.13;;
39032;SDS011;24794;51.982;5.878;2023-03-14T02:39:56;13.52;;;2.00;;
39032;SDS011;24794;51.982;5.878;2023-03-14T02:40:56;17.67;;;2.33;;
39032;SDS011;24794;51.982;5.878;2023-03-14T02:41:57;11.70;;;2.40;;
39032;SDS011;24794;51.982;5.878;2023-03-14T02:42:57;8.68;;;2.20;;
39032;SDS011;24794;51.982;5.878;2023-03-14T02:43:58;12.23;;;1.98;;
39032;SDS011;24794;51.982;5.878;2023-03-14T02:46:09;10.98;;;1.70;;
39032;SDS011;24794;51.982;5.878;2023-03-14T02:47:13;8.63;;;1.60;;
39032;SDS011;24794;51.982;5.878;2023-03-14T02:48:18;13.55;;;2.17;;
39032;SDS011;24794;51.982;5.878;2023-03-14T02:49:21;14.07;;;2.10;;
39032;SDS011;24794;51.982;5.878;2023-03-14T02:50:23;14.85;;;2.00;;
39032;SDS011;24794;51.982;5.878;2023-03-14T02:51:29;7.28;;;1.50;;
39032;SDS011;24794;51.982;5.878;2023-03-14T02:52:30;12.93;;;2.25;;
39032;SDS011;24794;51.982;5.878;2023-03-14T02:53:31;8.70;;;1.63;;
39032;SDS011;24794;51.982;5.878;2023-03-14T02:54:33;9.82;;;1.52;;
39032;SDS011;24794;51.982;5.878;2023-03-14T02:55:34;13.52;;;2.38;;
39032;SDS011;24794;51.982;5.878;2023-03-14T02:56:35;11.68;;;1.83;;
39032;SDS011;24794;51.982;5.878;2023-03-14T02:57:37;8.02;;;1.92;;
39032;SDS011;24794;51.982;5.878;2023-03-14T02:58:37;13.13;;;1.92;;
39032;SDS011;24794;51.982;5.878;2023-03-14T02:59:38;11.70;;;1.88;;
39032;SDS011;24794;51.982;5.878;2023-03-14T03:00:39;6.28;;;1.52;;
39032;SDS011;24794;51.982;5.878;2023-03-14T03:01:39;6.18;;;1.40;;
39032;SDS011;24794;51.982;5.878;2023-03-14T03:02:40;11.52;;;1.60;;
39032;SDS011;24794;51.982;5.878;2023-03-14T03:03:40;9.73;;;1.83;;
39032;SDS011;24794;51.982;5.878;2023-03-14T03:04:41;7.70;;;1.75;;
39032;SDS011;24794;51.982;5.878;2023-03-14T03:05:42;11.15;;;1.70;;
39032;SDS011;24794;51.982;5.878;2023-03-14T03:06:43;8.18;;;1.27;;
39032;SDS011;24794;51.982;5.878;2023-03-14T03:07:44;11.43;;;1.98;;
39032;SDS011;24794;51.982;5.878;2023-03-14T03:08:44;11.68;;;1.60;;
39032;SDS011;24794;51.982;5.878;2023-03-14T03:09:45;13.40;;;2.30;;
39032;SDS011;24794;51.982;5.878;2023-03-14T03:10:46;7.22;;;1.83;;
39032;SDS011;24794;51.982;5.878;2023-03-14T03:11:46;11.73;;;1.83;;
39032;SDS011;24794;51.982;5.878;2023-03-14T03:12:47;10.60;;;1.98;;
39032;SDS011;24794;51.982;5.878;2023-03-14T03:13:47;12.45;;;2.33;;
39032;SDS011;24794;51.982;5.878;2023-03-14T03:14:48;8.93;;;2.05;;
39032;SDS011;24794;51.982;5.878;2023-03-14T03:15:49;7.53;;;1.67;;
39032;SDS011;24794;51.982;5.878;2023-03-14T03:16:49;11.20;;;1.98;;
39032;SDS011;24794;51.982;5.878;2023-03-14T03:17:50;10.18;;;2.28;;
39032;SDS011;24794;51.982;5.878;2023-03-14T03:18:50;8.30;;;1.60;;
39032;SDS011;24794;51.982;5.878;2023-03-14T03:19:51;16.23;;;2.00;;
39032;SDS011;24794;51.982;5.878;2023-03-14T03:20:51;13.77;;;1.80;;
39032;SDS011;24794;51.982;5.878;2023-03-14T03:21:52;10.43;;;1.98;;
39032;SDS011;24794;51.982;5.878;2023-03-14T03:22:52;9.25;;;1.80;;
39032;SDS011;24794;51.982;5.878;2023-03-14T03:23:53;14.18;;;2.20;;
39032;SDS011;24794;51.982;5.878;2023-03-14T03:24:53;10.60;;;1.98;;
39032;SDS011;24794;51.982;5.878;2023-03-14T03:25:54;11.73;;;2.20;;
39032;SDS011;24794;51.982;5.878;2023-03-14T03:26:54;10.93;;;1.80;;
39032;SDS011;24794;51.982;5.878;2023-03-14T03:27:55;10.85;;;1.75;;
39032;SDS011;24794;51.982;5.878;2023-03-14T03:28:56;9.88;;;1.38;;
39032;SDS011;24794;51.982;5.878;2023-03-14T03:29:56;11.63;;;1.75;;
39032;SDS011;24794;51.982;5.878;2023-03-14T03:30:57;13.27;;;1.80;;
39032;SDS011;24794;51.982;5.878;2023-03-14T03:31:57;12.88;;;2.22;;
39032;SDS011;24794;51.982;5.878;2023-03-14T03:32:58;11.63;;;1.88;;
39032;SDS011;24794;51.982;5.878;2023-03-14T03:33:58;12.82;;;2.40;;
39032;SDS011;24794;51.982;5.878;2023-03-14T03:34:59;12.73;;;2.10;;
39032;SDS011;24794;51.982;5.878;2023-03-14T03:35:59;9.77;;;2.00;;
39032;SDS011;24794;51.982;5.878;2023-03-14T03:37:00;10.02;;;2.00;;
39032;SDS011;24794;51.982;5.878;2023-03-14T03:38:00;15.73;;;1.92;;
39032;SDS011;24794;51.982;5.878;2023-03-14T03:39:01;12.73;;;2.05;;
39032;SDS011;24794;51.982;5.878;2023-03-14T03:40:02;11.82;;;2.40;;
39032;SDS011;24794;51.982;5.878;2023-03-14T03:41:06;16.15;;;3.20;;
39032;SDS011;24794;51.982;5.878;2023-03-14T03:42:07;12.45;;;1.80;;
39032;SDS011;24794;51.982;5.878;2023-03-14T03:43:08;11.48;;;2.03;;
39032;SDS011;24794;51.982;5.878;2023-03-14T03:44:08;12.65;;;2.35;;
39032;SDS011;24794;51.982;5.878;2023-03-14T03:45:09;12.10;;;2.38;;
39032;SDS011;24794;51.982;5.878;2023-03-14T03:46:10;16.52;;;2.30;;
39032;SDS011;24794;51.982;5.878;2023-03-14T03:47:10;8.88;;;2.90;;
39032;SDS011;24794;51.982;5.878;2023-03-14T03:48:11;13.70;;;2.55;;
39032;SDS011;24794;51.982;5.878;2023-03-14T03:49:11;11.88;;;2.45;;
39032;SDS011;24794;51.982;5.878;2023-03-14T03:50:12;12.93;;;2.70;;
39032;SDS011;24794;51.982;5.878;2023-03-14T03:51:13;15.00;;;2.25;;
39032;SDS011;24794;51.982;5.878;2023-03-14T03:52:14;12.40;;;2.50;;
39032;SDS011;24794;51.982;5.878;2023-03-14T03:53:15;7.82;;;2.00;;
39032;SDS011;24794;51.982;5.878;2023-03-14T03:54:15;10.48;;;1.90;;
39032;SDS011;24794;51.982;5.878;2023-03-14T03:55:16;12.93;;;2.35;;
39032;SDS011;24794;51.982;5.878;2023-03-14T03:56:17;11.23;;;2.63;;
39032;SDS011;24794;51.982;5.878;2023-03-14T03:57:17;13.48;;;2.42;;
39032;SDS011;24794;51.982;5.878;2023-03-14T03:58:18;13.68;;;2.47;;
39032;SDS011;24794;51.982;5.878;2023-03-14T03:59:19;11.07;;;2.53;;
39032;SDS011;24794;51.982;5.878;2023-03-14T04:00:20;13.45;;;2.60;;
39032;SDS011;24794;51.982;5.878;2023-03-14T04:01:20;14.23;;;2.17;;
39032;SDS011;24794;51.982;5.878;2023-03-14T04:02:21;18.13;;;3.03;;
39032;SDS011;24794;51.982;5.878;2023-03-14T04:03:21;11.98;;;2.78;;
39032;SDS011;24794;51.982;5.878;2023-03-14T04:04:22;14.95;;;2.63;;
39032;SDS011;24794;51.982;5.878;2023-03-14T04:05:23;17.40;;;3.05;;
39032;SDS011;24794;51.982;5.878;2023-03-14T04:06:23;12.77;;;2.78;;
39032;SDS011;24794;51.982;5.878;2023-03-14T04:07:24;17.67;;;3.42;;
39032;SDS011;24794;51.982;5.878;2023-03-14T04:08:24;13.60;;;2.78;;
39032;SDS011;24794;51.982;5.878;2023-03-14T04:09:25;13.18;;;2.65;;
39032;SDS011;24794;51.982;5.878;2023-03-14T04:10:25;9.90;;;2.50;;
39032;SDS011;24794;51.982;5.878;2023-03-14T04:11:26;17.55;;;3.17;;
39032;SDS011;24794;51.982;5.878;2023-03-14T04:12:26;16.48;;;2.60;;
39032;SDS011;24794;51.982;5.878;2023-03-14T04:13:27;14.32;;;2.88;;
39032;SDS011;24794;51.982;5.878;2023-03-14T04:14:28;10.68;;;2.55;;
39032;SDS011;24794;51.982;5.878;2023-03-14T04:15:29;12.13;;;2.40;;
39032;SDS011;24794;51.982;5.878;2023-03-14T04:16:29;14.63;;;2.60;;
39032;SDS011;24794;51.982;5.878;2023-03-14T04:17:31;18.02;;;2.13;;
39032;SDS011;24794;51.982;5.878;2023-03-14T04:18:31;10.25;;;2.13;;
39032;SDS011;24794;51.982;5.878;2023-03-14T04:19:32;14.48;;;2.35;;
39032;SDS011;24794;51.982;5.878;2023-03-14T04:20:34;14.90;;;2.53;;
39032;SDS011;24794;51.982;5.878;2023-03-14T04:21:34;13.60;;;2.10;;
39032;SDS011;24794;51.982;5.878;2023-03-14T04:22:35;13.40;;;2.40;;
39032;SDS011;24794;51.982;5.878;2023-03-14T04:23:37;12.00;;;2.30;;
39032;SDS011;24794;51.982;5.878;2023-03-14T04:24:37;9.55;;;2.38;;
39032;SDS011;24794;51.982;5.878;2023-03-14T04:25:38;11.07;;;2.00;;
39032;SDS011;24794;51.982;5.878;2023-03-14T04:26:38;14.60;;;2.20;;
39032;SDS011;24794;51.982;5.878;2023-03-14T04:27:39;19.15;;;2.35;;
39032;SDS011;24794;51.982;5.878;2023-03-14T04:28:39;13.75;;;2.15;;
39032;SDS011;24794;51.982;5.878;2023-03-14T04:29:40;11.32;;;2.47;;
39032;SDS011;24794;51.982;5.878;2023-03-14T04:30:42;10.63;;;2.45;;
39032;SDS011;24794;51.982;5.878;2023-03-14T04:31:42;10.60;;;2.50;;
39032;SDS011;24794;51.982;5.878;2023-03-14T04:32:43;11.40;;;2.22;;
39032;SDS011;24794;51.982;5.878;2023-03-14T04:33:43;15.38;;;2.42;;
39032;SDS011;24794;51.982;5.878;2023-03-14T04:34:44;13.02;;;2.85;;
39032;SDS011;24794;51.982;5.878;2023-03-14T04:35:45;10.55;;;1.85;;
39032;SDS011;24794;51.982;5.878;2023-03-14T04:36:46;13.00;;;2.17;;
39032;SDS011;24794;51.982;5.878;2023-03-14T04:37:47;12.63;;;2.13;;
39032;SDS011;24794;51.982;5.878;2023-03-14T04:38:48;10.57;;;1.92;;
39032;SDS011;24794;51.982;5.878;2023-03-14T04:39:49;11.50;;;2.22;;
39032;SDS011;24794;51.982;5.878;2023-03-14T04:40:49;16.33;;;2.20;;
39032;SDS011;24794;51.982;5.878;2023-03-14T04:41:50;14.32;;;2.17;;
39032;SDS011;24794;51.982;5.878;2023-03-14T04:42:52;12.57;;;2.03;;
39032;SDS011;24794;51.982;5.878;2023-03-14T04:43:52;11.10;;;1.90;;
39032;SDS011;24794;51.982;5.878;2023-03-14T04:44:53;12.30;;;2.20;;
39032;SDS011;24794;51.982;5.878;2023-03-14T04:45:54;11.77;;;2.00;;
39032;SDS011;24794;51.982;5.878;2023-03-14T04:46:55;9.85;;;1.80;;
39032;SDS011;24794;51.982;5.878;2023-03-14T04:47:55;14.45;;;2.20;;
39032;SDS011;24794;51.982;5.878;2023-03-14T04:48:56;13.30;;;1.85;;
39032;SDS011;24794;51.982;5.878;2023-03-14T04:49:57;11.48;;;2.20;;
39032;SDS011;24794;51.982;5.878;2023-03-14T04:50:57;10.73;;;2.33;;
39032;SDS011;24794;51.982;5.878;2023-03-14T04:51:58;11.02;;;1.85;;
39032;SDS011;24794;51.982;5.878;2023-03-14T04:52:59;7.82;;;1.83;;
39032;SDS011;24794;51.982;5.878;2023-03-14T04:53:59;8.27;;;1.83;;
39032;SDS011;24794;51.982;5.878;2023-03-14T04:55:00;11.60;;;2.00;;
39032;SDS011;24794;51.982;5.878;2023-03-14T04:56:00;9.48;;;2.10;;
39032;SDS011;24794;51.982;5.878;2023-03-14T04:57:01;14.40;;;1.90;;
39032;SDS011;24794;51.982;5.878;2023-03-14T04:58:02;10.23;;;1.90;;
39032;SDS011;24794;51.982;5.878;2023-03-14T04:59:02;7.65;;;1.52;;
39032;SDS011;24794;51.982;5.878;2023-03-14T05:00:04;10.35;;;2.28;;
39032;SDS011;24794;51.982;5.878;2023-03-14T05:01:08;10.35;;;3.20;;
39032;SDS011;24794;51.982;5.878;2023-03-14T05:02:08;7.25;;;2.03;;
39032;SDS011;24794;51.982;5.878;2023-03-14T05:03:09;12.77;;;1.95;;
39032;SDS011;24794;51.982;5.878;2023-03-14T05:04:10;9.38;;;1.63;;
39032;SDS011;24794;51.982;5.878;2023-03-14T05:05:10;9.50;;;2.20;;
39032;SDS011;24794;51.982;5.878;2023-03-14T05:06:11;9.60;;;1.65;;
39032;SDS011;24794;51.982;5.878;2023-03-14T05:07:11;7.95;;;1.50;;
39032;SDS011;24794;51.982;5.878;2023-03-14T05:08:12;11.75;;;1.73;;
39032;SDS011;24794;51.982;5.878;2023-03-14T05:09:13;8.93;;;1.85;;
39032;SDS011;24794;51.982;5.878;2023-03-14T05:10:15;10.82;;;1.60;;
39032;SDS011;24794;51.982;5.878;2023-03-14T05:11:15;10.27;;;1.20;;
39032;SDS011;24794;51.982;5.878;2023-03-14T05:12:16;5.18;;;1.17;;
39032;SDS011;24794;51.982;5.878;2023-03-14T05:13:17;9.20;;;1.38;;
39032;SDS011;24794;51.982;5.878;2023-03-14T05:14:17;10.38;;;1.50;;
39032;SDS011;24794;51.982;5.878;2023-03-14T05:15:18;7.10;;;1.38;;
39032;SDS011;24794;51.982;5.878;2023-03-14T05:16:18;8.38;;;1.52;;
39032;SDS011;24794;51.982;5.878;2023-03-14T05:17:19;13.45;;;1.75;;
39032;SDS011;24794;51.982;5.878;2023-03-14T05:18:19;8.32;;;1.50;;
39032;SDS011;24794;51.982;5.878;2023-03-14T05:19:20;7.68;;;1.67;;
39032;SDS011;24794;51.982;5.878;2023-03-14T05:20:21;8.88;;;1.10;;
39032;SDS011;24794;51.982;5.878;2023-03-14T05:21:21;7.18;;;1.63;;
39032;SDS011;24794;51.982;5.878;2023-03-14T05:22:22;6.45;;;1.40;;
39032;SDS011;24794;51.982;5.878;2023-03-14T05:23:22;6.93;;;1.40;;
39032;SDS011;24794;51.982;5.878;2023-03-14T05:24:23;6.70;;;1.30;;
39032;SDS011;24794;51.982;5.878;2023-03-14T05:25:23;7.05;;;1.10;;
39032;SDS011;24794;51.982;5.878;2023-03-14T05:26:24;8.60;;;1.33;;
39032;SDS011;24794;51.982;5.878;2023-03-14T05:27:25;7.22;;;1.40;;
39032;SDS011;24794;51.982;5.878;2023-03-14T05:28:25;9.30;;;1.50;;
39032;SDS011;24794;51.982;5.878;2023-03-14T05:29:26;9.18;;;1.40;;
39032;SDS011;24794;51.982;5.878;2023-03-14T05:30:26;9.85;;;1.55;;
39032;SDS011;24794;51.982;5.878;2023-03-14T05:31:28;6.00;;;1.48;;
39032;SDS011;24794;51.982;5.878;2023-03-14T05:32:28;7.15;;;1.10;;
39032;SDS011;24794;51.982;5.878;2023-03-14T05:33:29;5.57;;;1.55;;
39032;SDS011;24794;51.982;5.878;2023-03-14T05:34:29;6.30;;;1.13;;
39032;SDS011;24794;51.982;5.878;2023-03-14T05:35:30;9.32;;;1.60;;
39032;SDS011;24794;51.982;5.878;2023-03-14T05:36:31;7.40;;;1.42;;
39032;SDS011;24794;51.982;5.878;2023-03-14T05:37:31;8.85;;;1.17;;
39032;SDS011;24794;51.982;5.878;2023-03-14T05:38:32;6.72;;;1.40;;
39032;SDS011;24794;51.982;5.878;2023-03-14T05:39:32;4.75;;;1.00;;
39032;SDS011;24794;51.982;5.878;2023-03-14T05:40:33;6.65;;;1.10;;
39032;SDS011;24794;51.982;5.878;2023-03-14T05:41:34;10.80;;;1.40;;
39032;SDS011;24794;51.982;5.878;2023-03-14T05:42:35;9.27;;;1.35;;
39032;SDS011;24794;51.982;5.878;2023-03-14T05:43:36;7.28;;;1.27;;
39032;SDS011;24794;51.982;5.878;2023-03-14T05:44:39;10.88;;;1.52;;
39032;SDS011;24794;51.982;5.878;2023-03-14T05:45:40;5.40;;;1.25;;
39032;SDS011;24794;51.982;5.878;2023-03-14T05:46:40;8.25;;;1.35;;
39032;SDS011;24794;51.982;5.878;2023-03-14T05:47:41;3.95;;;1.30;;
39032;SDS011;24794;51.982;5.878;2023-03-14T05:48:41;6.47;;;1.40;;
39032;SDS011;24794;51.982;5.878;2023-03-14T05:49:42;4.25;;;1.38;;
39032;SDS011;24794;51.982;5.878;2023-03-14T05:50:42;8.85;;;1.75;;
39032;SDS011;24794;51.982;5.878;2023-03-14T05:51:43;6.03;;;1.60;;
39032;SDS011;24794;51.982;5.878;2023-03-14T05:52:44;6.88;;;1.13;;
39032;SDS011;24794;51.982;5.878;2023-03-14T05:53:44;5.75;;;1.10;;
39032;SDS011;24794;51.982;5.878;2023-03-14T05:54:45;6.93;;;1.08;;
39032;SDS011;24794;51.982;5.878;2023-03-14T05:55:46;5.53;;;1.10;;
39032;SDS011;24794;51.982;5.878;2023-03-14T05:56:46;4.78;;;1.20;;
39032;SDS011;24794;51.982;5.878;2023-03-14T05:57:47;8.48;;;1.65;;
39032;SDS011;24794;51.982;5.878;2023-03-14T05:58:47;6.25;;;1.67;;
39032;SDS011;24794;51.982;5.878;2023-03-14T05:59:48;7.70;;;1.48;;
39032;SDS011;24794;51.982;5.878;2023-03-14T06:00:48;5.90;;;1.40;;
39032;SDS011;24794;51.982;5.878;2023-03-14T06:01:49;9.95;;;1.50;;
39032;SDS011;24794;51.982;5.878;2023-03-14T06:02:50;4.70;;;1.10;;
39032;SDS011;24794;51.982;5.878;2023-03-14T06:03:50;4.65;;;1.40;;
39032;SDS011;24794;51.982;5.878;2023-03-14T06:04:51;5.80;;;1.38;;
39032;SDS011;24794;51.982;5.878;2023-03-14T06:05:52;7.25;;;1.50;;
39032;SDS011;24794;51.982;5.878;2023-03-14T06:06:53;7.38;;;1.50;;
39032;SDS011;24794;51.982;5.878;2023-03-14T06:07:53;7.07;;;1.77;;
39032;SDS011;24794;51.982;5.878;2023-03-14T06:08:54;6.05;;;1.10;;
39032;SDS011;24794;51.982;5.878;2023-03-14T06:09:55;5.82;;;1.35;;
39032;SDS011;24794;51.982;5.878;2023-03-14T06:10:56;5.60;;;1.30;;
39032;SDS011;24794;51.982;5.878;2023-03-14T06:11:57;9.30;;;1.67;;
39032;SDS011;24794;51.982;5.878;2023-03-14T06:12:57;7.55;;;1.58;;
39032;SDS011;24794;51.982;5.878;2023-03-14T06:13:58;6.28;;;1.33;;
39032;SDS011;24794;51.982;5.878;2023-03-14T06:14:58;5.50;;;1.45;;
39032;SDS011;24794;51.982;5.878;2023-03-14T06:15:59;5.18;;;1.48;;
39032;SDS011;24794;51.982;5.878;2023-03-14T06:17:00;4.80;;;1.70;;
39032;SDS011;24794;51.982;5.878;2023-03-14T06:18:00;6.95;;;1.83;;